Terminal Aerodrome Forecast
Issued by NWS Portland, ME

Current Version | Previous Version | Text Only | Print | Product List | Glossary On
Versions: 1 2 3 4 5 6 7 8 9 10 11 12 13 14 15 16 17 18 19 20 21 22 23 24
722
FTUS41 KGYX 281720
TAFCON
TAF
KCON 281720Z 2818/2918 15006KT P6SM BKN050
     FM290000 14006KT P6SM SCT050
     FM290400 15005KT P6SM BKN050
     FM291000 13004KT P6SM BKN015 PROB30 2912/2914 4SM -SHRA OVC007
     FM291400 11007KT P6SM -SHRA OVC015
     FM291700 10008KT 3SM -SHRA OVC008=

USA.gov is the U.S. government's official web portal to all federal, state and local government web resources and services.